Terminal Aerodrome Forecast
Issued by NWS Billings, MT

Home | Current Version | Previous Version | Text Only | Print | Product List | Glossary On
Versions: 1 2 3 4 5 6 7 8 9 10 11 12 13 14 15 16 17 18 19 20 21 22 23 24 25 26 27 28 29 30 31 32
000
FTUS45 KBYZ 282101 AAA
TAFBIL
TAF AMD
KBIL 282101Z 2821/2918 36013KT P6SM BKN060
     FM290000 07006KT P6SM BKN100
     FM290600 VRB04KT P6SM FEW080 BKN100
     FM291100 17006KT P6SM SKC=

USA.gov is the U.S. government's official web portal to all federal, state and local government web resources and services.